Time;durP1;ratioP1;P1;durP2;ratioP2;P2;SDS_P1;SDS_P2;PMS_P1;PMS_P2;Temp;Humidity;BMP_temperature;BMP_pressure;BME280_temperature;BME280_humidity;BME280_pressure;Samples;Min_cycle;Max_cycle;Signal;HPM_P1;HPM_P2
2021/12/03 00:02:04;;;;;;;;;;;;;;;4.83;62.59;100088.78;4974630;28;7015;-75
2021/12/03 00:04:30;;;;;;;;;;;;;;;4.85;62.84;100091.38;4955913;28;7825;-75
2021/12/03 00:06:56;;;;;;;;;;;;;;;4.85;62.65;100089.75;4970685;28;6799;-75
2021/12/03 00:09:22;;;;;;;;;;;;;;;4.86;62.07;100094.03;4974115;28;7182;-75
2021/12/03 00:11:48;;;;;;;;;;;;;;;4.84;62.11;100088.00;4971655;28;6872;-75
2021/12/03 00:14:13;;;;;;;;;;;;;;;4.83;62.90;100081.16;4957986;28;6856;-76
2021/12/03 00:16:39;;;;;;;;;;;;;;;4.84;62.29;100080.38;4990434;28;7008;-75
2021/12/03 00:19:05;;;;;;;;;;;;;;;4.84;62.38;100074.41;4979502;28;6807;-75
2021/12/03 00:21:31;;;;;;;;;;;;;;;4.84;63.07;100072.75;4975221;28;7187;-75
2021/12/03 00:23:56;;;;;;;;;;;;;;;4.88;63.03;100075.47;4973053;28;7144;-75
2021/12/03 00:26:22;;;;;;;;;;;;;;;4.90;63.05;100071.38;4974661;28;6803;-75
2021/12/03 00:28:49;;;;;;;;;;;;;;;4.92;62.48;100067.28;4974948;28;7167;-75
2021/12/03 00:31:15;;;;;;;;;;;;;;;4.95;62.97;100070.03;4972979;28;7161;-75
2021/12/03 00:33:41;;;;;;;;;;;;;;;4.96;63.15;100065.03;4974241;28;7233;-75
2021/12/03 00:36:10;;;;;;;;;;;;;;;4.99;63.42;100066.91;4975555;28;7206;-75
2021/12/03 00:38:45;;;;;;;;;;;;;;;5.04;62.75;100074.81;4967278;28;7176;-75
2021/12/03 00:41:15;;;;;;;;;;;;;;;5.11;63.31;100076.97;4973106;28;7411;-75
2021/12/03 00:43:46;;;;;;;;;;;;;;;5.19;63.52;100078.38;4972562;28;6996;-75
2021/12/03 00:46:15;;;;;;;;;;;;;;;5.25;62.96;100085.50;4941330;28;6995;-75
2021/12/03 00:48:42;;;;;;;;;;;;;;;5.32;62.85;100084.22;4975979;28;8486;-75
2021/12/03 00:51:09;;;;;;;;;;;;;;;5.35;63.10;100081.88;4961462;28;7632;-75
2021/12/03 00:53:38;;;;;;;;;;;;;;;5.39;63.03;100086.38;4973843;28;7260;-75
2021/12/03 00:56:04;;;;;;;;;;;;;;;5.42;63.12;100074.75;4974259;28;6980;-75
2021/12/03 00:58:29;;;;;;;;;;;;;;;5.45;62.59;100078.25;4976035;28;6880;-75
2021/12/03 01:00:55;;;;;;;;;;;;;;;5.47;62.66;100081.78;4974148;28;8363;-75
2021/12/03 01:03:21;;;;;;;;;;;;;;;5.50;62.71;100081.97;4976347;28;6848;-75
2021/12/03 01:05:47;;;;;;;;;;;;;;;5.56;62.75;100084.91;4961098;28;6927;-75
2021/12/03 01:08:13;;;;;;;;;;;;;;;5.61;62.84;100091.16;4977388;28;7032;-75
2021/12/03 01:10:39;;;;;;;;;;;;;;;5.67;63.15;100093.22;4959649;28;7356;-75
2021/12/03 01:13:05;;;;;;;;;;;;;;;5.71;63.21;100100.25;4975797;28;6987;-75
2021/12/03 01:15:35;;;;;;;;;;;;;;;5.77;63.27;100102.28;4961965;28;7188;-75
2021/12/03 01:18:01;;;;;;;;;;;;;;;5.82;62.78;100099.25;4979645;28;7153;-75
2021/12/03 01:20:27;;;;;;;;;;;;;;;5.85;63.41;100096.00;4978473;28;7245;-75
2021/12/03 01:22:54;;;;;;;;;;;;;;;5.90;62.99;100103.94;4978397;28;7796;-76
2021/12/03 01:25:21;;;;;;;;;;;;;;;5.92;62.90;100087.97;4976898;28;6875;-76
2021/12/03 01:27:48;;;;;;;;;;;;;;;5.94;62.76;100083.88;4977328;28;7261;-76
2021/12/03 01:30:17;;;;;;;;;;;;;;;5.96;62.61;100086.50;4975316;28;6829;-76
2021/12/03 01:32:45;;;;;;;;;;;;;;;5.96;62.48;100078.88;4979661;28;7196;-75
2021/12/03 01:35:13;;;;;;;;;;;;;;;5.96;63.01;100079.75;4977648;28;6808;-75
2021/12/03 01:37:40;;;;;;;;;;;;;;;6.02;62.47;100086.03;4966457;28;6820;-75
2021/12/03 01:40:12;;;;;;;;;;;;;;;6.03;62.46;100083.56;4960784;28;6827;-75
2021/12/03 01:42:41;;;;;;;;;;;;;;;6.07;62.96;100089.72;4976747;28;7023;-75
2021/12/03 01:45:08;;;;;;;;;;;;;;;6.09;62.81;100091.59;4975022;28;7932;-75
2021/12/03 01:47:35;;;;;;;;;;;;;;;6.09;62.45;100086.50;4975802;28;6804;-75
2021/12/03 01:50:01;;;;;;;;;;;;;;;6.12;62.45;100098.53;4976906;28;6964;-75
2021/12/03 01:52:27;;;;;;;;;;;;;;;6.13;62.59;100097.75;4975934;28;6981;-75
2021/12/03 01:54:53;;;;;;;;;;;;;;;6.16;62.72;100108.09;4976639;28;6878;-75
2021/12/03 01:57:20;;;;;;;;;;;;;;;6.17;62.42;100093.72;4959684;28;6808;-75
2021/12/03 01:59:45;;;;;;;;;;;;;;;6.21;62.19;100096.56;4977193;28;6804;-75
2021/12/03 02:02:12;;;;;;;;;;;;;;;6.22;62.61;100098.31;4975135;28;6812;-75
2021/12/03 02:04:38;;;;;;;;;;;;;;;6.25;62.52;100103.56;4978410;28;6815;-75
2021/12/03 02:07:04;;;;;;;;;;;;;;;6.27;62.41;100101.13;4977681;28;6800;-75
2021/12/03 02:09:30;;;;;;;;;;;;;;;6.28;62.39;100097.78;4974776;28;6886;-75
2021/12/03 02:11:55;;;;;;;;;;;;;;;6.25;61.85;100098.47;4976654;28;6803;-75
2021/12/03 02:14:21;;;;;;;;;;;;;;;6.20;61.75;100093.91;4976321;28;6974;-75
2021/12/03 02:16:47;;;;;;;;;;;;;;;6.14;61.68;100099.50;4975664;28;7230;-75
2021/12/03 02:19:14;;;;;;;;;;;;;;;6.09;61.63;100089.03;4974861;28;6875;-75
2021/12/03 02:21:40;;;;;;;;;;;;;;;6.07;62.01;100079.56;4972919;28;6973;-75
2021/12/03 02:24:06;;;;;;;;;;;;;;;6.08;61.79;100082.19;4976836;28;6792;-75
2021/12/03 02:26:32;;;;;;;;;;;;;;;6.10;61.94;100074.66;4976341;28;7198;-75
2021/12/03 02:28:58;;;;;;;;;;;;;;;6.08;62.09;100066.94;4976618;28;6884;-75
2021/12/03 02:31:25;;;;;;;;;;;;;;;6.10;62.01;100070.44;4973146;28;7160;-75
2021/12/03 02:33:53;;;;;;;;;;;;;;;6.11;61.89;100076.44;4976247;28;7445;-75
2021/12/03 02:36:20;;;;;;;;;;;;;;;6.13;62.33;100077.38;4981836;28;7078;-76
2021/12/03 02:38:46;;;;;;;;;;;;;;;6.16;62.29;100086.88;4977015;28;6891;-76
2021/12/03 02:41:13;;;;;;;;;;;;;;;6.18;62.27;100090.41;4973780;28;7132;-76
2021/12/03 02:43:39;;;;;;;;;;;;;;;6.22;62.35;100088.13;4956513;28;7177;-76
2021/12/03 02:46:04;;;;;;;;;;;;;;;6.26;62.00;100086.66;4976780;28;7884;-76
2021/12/03 02:48:32;;;;;;;;;;;;;;;6.31;62.40;100079.28;4975129;28;7182;-76
2021/12/03 02:50:58;;;;;;;;;;;;;;;6.36;62.25;100077.88;4972311;28;6815;-75
2021/12/03 02:53:24;;;;;;;;;;;;;;;6.42;62.48;100073.16;4974338;28;7199;-75
2021/12/03 02:55:51;;;;;;;;;;;;;;;6.47;61.86;100070.91;4956248;28;6808;-75
2021/12/03 02:58:19;;;;;;;;;;;;;;;6.51;62.38;100076.25;4972983;28;6816;-75
2021/12/03 03:00:48;;;;;;;;;;;;;;;6.56;62.09;100085.81;4973636;28;7214;-75
2021/12/03 03:03:14;;;;;;;;;;;;;;;6.60;61.90;100090.31;4972710;28;7283;-75
2021/12/03 03:05:40;;;;;;;;;;;;;;;6.63;61.78;100095.59;4939066;28;7798;-75
2021/12/03 03:08:06;;;;;;;;;;;;;;;6.67;62.41;100095.88;4972487;28;6791;-75
2021/12/03 03:10:39;;;;;;;;;;;;;;;6.72;62.09;100100.38;4970902;28;7253;-75
2021/12/03 03:13:04;;;;;;;;;;;;;;;6.73;61.52;100100.44;4969541;28;7177;-75
2021/12/03 03:15:30;;;;;;;;;;;;;;;6.75;61.75;100096.31;4971393;28;6962;-75
2021/12/03 03:17:56;;;;;;;;;;;;;;;6.76;61.79;100082.81;4967704;28;6820;-75
2021/12/03 03:20:22;;;;;;;;;;;;;;;6.80;61.23;100091.47;4968650;28;6915;-75
2021/12/03 03:22:49;;;;;;;;;;;;;;;6.81;61.52;100071.19;4969863;28;6868;-75
2021/12/03 03:25:18;;;;;;;;;;;;;;;6.83;61.56;100072.94;4974954;28;6795;-75
2021/12/03 03:27:44;;;;;;;;;;;;;;;6.83;61.16;100072.94;4970489;28;6840;-75
2021/12/03 03:30:14;;;;;;;;;;;;;;;6.82;61.62;100072.09;4968929;28;7007;-75
2021/12/03 03:32:42;;;;;;;;;;;;;;;6.83;61.79;100072.94;4984913;28;7029;-75
2021/12/03 03:35:09;;;;;;;;;;;;;;;6.83;61.99;100076.41;4952246;28;7022;-75
2021/12/03 03:37:34;;;;;;;;;;;;;;;6.84;61.76;100078.16;4951741;28;7123;-75
2021/12/03 03:40:00;;;;;;;;;;;;;;;6.86;61.33;100076.56;4972922;28;6870;-75
2021/12/03 03:42:26;;;;;;;;;;;;;;;6.86;61.64;100086.75;4969976;28;6959;-75
2021/12/03 03:44:52;;;;;;;;;;;;;;;6.89;61.83;100093.69;4970929;28;7157;-75
2021/12/03 03:47:18;;;;;;;;;;;;;;;6.89;61.31;100088.59;4970981;28;6795;-75
2021/12/03 03:49:43;;;;;;;;;;;;;;;6.90;61.65;100075.06;4967431;28;7190;-75
2021/12/03 03:52:09;;;;;;;;;;;;;;;6.91;61.68;100081.91;4970451;28;8630;-75
2021/12/03 03:54:35;;;;;;;;;;;;;;;6.91;61.46;100076.81;4985893;28;7832;-75
2021/12/03 03:57:02;;;;;;;;;;;;;;;6.91;61.55;100081.91;4971745;28;7003;-75
2021/12/03 03:59:27;;;;;;;;;;;;;;;6.91;61.53;100080.25;4966318;28;7063;-75
2021/12/03 04:01:54;;;;;;;;;;;;;;;6.94;61.51;100071.91;4970783;28;7145;-75
2021/12/03 04:04:21;;;;;;;;;;;;;;;6.95;61.16;100068.56;4972402;28;7171;-75
2021/12/03 04:06:49;;;;;;;;;;;;;;;6.97;60.97;100071.19;4968743;28;6816;-75
2021/12/03 04:09:15;;;;;;;;;;;;;;;6.95;61.98;100073.66;4969593;28;6887;-75
2021/12/03 04:11:40;;;;;;;;;;;;;;;6.97;61.16;100069.53;4955939;28;7013;-75
2021/12/03 04:14:06;;;;;;;;;;;;;;;6.97;60.84;100069.53;4973159;28;7194;-75
2021/12/03 04:16:32;;;;;;;;;;;;;;;6.98;61.22;100066.19;4972289;28;6955;-75
2021/12/03 04:18:59;;;;;;;;;;;;;;;6.99;61.20;100067.94;4976872;28;7212;-75
2021/12/03 04:21:25;;;;;;;;;;;;;;;7.00;61.01;100064.59;4978800;28;6938;-75
2021/12/03 04:23:52;;;;;;;;;;;;;;;7.00;60.78;100059.50;4972093;28;8038;-75
2021/12/03 04:26:17;;;;;;;;;;;;;;;7.01;60.74;100062.97;4955145;28;7183;-75
2021/12/03 04:28:43;;;;;;;;;;;;;;;7.02;61.19;100065.56;4959480;28;6784;-75
2021/12/03 04:31:09;;;;;;;;;;;;;;;7.00;60.72;100063.72;4973418;28;6835;-75
2021/12/03 04:33:35;;;;;;;;;;;;;;;7.00;61.31;100059.50;4972150;28;6870;-75
2021/12/03 04:36:00;;;;;;;;;;;;;;;7.01;60.62;100063.81;4975383;28;6946;-75
2021/12/03 04:38:26;;;;;;;;;;;;;;;7.01;60.71;100053.63;4976089;28;7215;-75
2021/12/03 04:40:52;;;;;;;;;;;;;;;7.02;61.30;100051.97;4975709;28;6891;-75
2021/12/03 04:43:18;;;;;;;;;;;;;;;7.03;61.34;100041.84;4977870;28;6874;-75
2021/12/03 04:45:44;;;;;;;;;;;;;;;7.03;60.79;100026.56;4974626;28;6796;-75
2021/12/03 04:48:10;;;;;;;;;;;;;;;7.04;60.70;100025.75;4975204;28;8433;-75
2021/12/03 04:50:40;;;;;;;;;;;;;;;7.04;60.74;100033.41;4976269;28;6792;-75
2021/12/03 04:53:08;;;;;;;;;;;;;;;7.06;60.82;100030.94;4976138;28;6800;-75
2021/12/03 04:55:35;;;;;;;;;;;;;;;7.07;60.80;100036.13;4991223;28;6807;-75
2021/12/03 04:58:02;;;;;;;;;;;;;;;7.09;61.49;100037.09;4973120;28;7003;-75
2021/12/03 05:00:36;;;;;;;;;;;;;;;7.12;61.34;100038.06;4976010;28;6998;-75
2021/12/03 05:03:02;;;;;;;;;;;;;;;7.14;60.56;100039.91;4967038;28;6986;-75
2021/12/03 05:05:32;;;;;;;;;;;;;;;7.14;61.34;100060.28;4974409;28;7623;-75
2021/12/03 05:08:01;;;;;;;;;;;;;;;7.15;60.56;100066.28;4977036;28;6808;-75
2021/12/03 05:10:36;;;;;;;;;;;;;;;7.16;60.96;100052.75;4978164;28;6812;-75
2021/12/03 05:13:21;;;;;;;;;;;;;;;7.19;61.36;100052.91;4960136;28;7100;-75
2021/12/03 05:15:47;;;;;;;;;;;;;;;7.20;60.84;100057.22;4974742;28;7238;-75
2021/12/03 05:18:20;;;;;;;;;;;;;;;7.23;61.07;100060.81;4977190;28;7208;-75
2021/12/03 05:20:50;;;;;;;;;;;;;;;7.22;60.29;100058.16;4975136;28;7123;-76
2021/12/03 05:23:17;;;;;;;;;;;;;;;7.23;61.03;100065.03;4975671;28;7849;-75
2021/12/03 05:25:43;;;;;;;;;;;;;;;7.25;61.15;100067.66;4978565;28;6812;-75
2021/12/03 05:28:10;;;;;;;;;;;;;;;7.26;60.59;100061.78;4960212;28;7003;-75
2021/12/03 05:30:37;;;;;;;;;;;;;;;7.27;60.85;100064.41;4973064;28;7280;-75
2021/12/03 05:33:05;;;;;;;;;;;;;;;7.28;61.13;100066.16;4957850;28;7020;-76
2021/12/03 05:35:31;;;;;;;;;;;;;;;7.29;60.95;100064.47;4977412;28;6816;-75
2021/12/03 05:37:57;;;;;;;;;;;;;;;7.29;59.99;100067.03;4977190;28;8014;-75
2021/12/03 05:40:23;;;;;;;;;;;;;;;7.28;60.36;100057.63;4977140;28;7905;-75
2021/12/03 05:42:50;;;;;;;;;;;;;;;7.27;60.79;100066.97;4978836;28;7010;-75
2021/12/03 05:45:24;;;;;;;;;;;;;;;7.28;60.02;100057.63;4976083;28;7077;-75
2021/12/03 05:47:51;;;;;;;;;;;;;;;7.29;60.12;100060.28;4993350;28;7019;-75
2021/12/03 05:50:18;;;;;;;;;;;;;;;7.27;59.84;100061.88;4978398;28;6811;-75
2021/12/03 05:52:46;;;;;;;;;;;;;;;7.26;59.71;100059.22;4961174;28;6984;-75
2021/12/03 05:55:12;;;;;;;;;;;;;;;7.23;59.78;100058.25;4977048;28;7209;-75
2021/12/03 05:57:39;;;;;;;;;;;;;;;7.20;59.65;100054.66;4960517;28;7197;-75
2021/12/03 06:00:11;;;;;;;;;;;;;;;7.18;59.83;100067.31;4984110;28;7195;-75
2021/12/03 06:02:37;;;;;;;;;;;;;;;7.14;60.04;100061.94;4975616;28;7246;-75
2021/12/03 06:05:03;;;;;;;;;;;;;;;7.08;59.46;100063.38;4977273;28;6883;-75
2021/12/03 06:07:28;;;;;;;;;;;;;;;7.05;59.91;100058.13;4961372;28;6800;-75
2021/12/03 06:09:54;;;;;;;;;;;;;;;7.03;60.01;100066.47;4974471;28;6871;-75
2021/12/03 06:12:20;;;;;;;;;;;;;;;7.00;59.97;100063.72;4976840;28;6867;-75
2021/12/03 06:14:45;;;;;;;;;;;;;;;6.97;59.62;100079.72;4974173;28;6854;-75
2021/12/03 06:17:13;;;;;;;;;;;;;;;6.95;59.34;100069.44;4978006;28;6784;-75
2021/12/03 06:19:43;;;;;;;;;;;;;;;6.94;59.39;100069.34;4975606;28;6974;-75
2021/12/03 06:22:10;;;;;;;;;;;;;;;6.92;59.32;100060.75;4977272;28;6796;-75
2021/12/03 06:24:39;;;;;;;;;;;;;;;6.89;59.45;100053.78;4975115;28;6799;-75
2021/12/03 06:27:05;;;;;;;;;;;;;;;6.85;59.42;100058.63;4972811;28;6812;-75
2021/12/03 06:29:31;;;;;;;;;;;;;;;6.83;59.04;100055.13;4974410;28;7326;-75
2021/12/03 06:31:57;;;;;;;;;;;;;;;6.78;59.46;100059.94;4973325;28;7011;-75
2021/12/03 06:34:22;;;;;;;;;;;;;;;6.75;59.74;100053.00;4973181;28;7069;-75
2021/12/03 06:36:49;;;;;;;;;;;;;;;6.73;59.71;100053.72;4972162;28;7941;-75
2021/12/03 06:39:14;;;;;;;;;;;;;;;6.71;59.61;100058.72;4955419;28;7153;-75
2021/12/03 06:41:40;;;;;;;;;;;;;;;6.71;59.86;100061.25;4972280;28;7018;-75
2021/12/03 06:44:08;;;;;;;;;;;;;;;6.72;59.24;100049.44;4977101;28;6787;-75
2021/12/03 06:46:36;;;;;;;;;;;;;;;6.73;59.43;100056.28;4971608;28;7207;-75
2021/12/03 06:49:02;;;;;;;;;;;;;;;6.73;59.79;100051.19;4971974;28;6973;-75
2021/12/03 06:51:31;;;;;;;;;;;;;;;6.72;58.99;100050.28;4968732;28;6963;-75
2021/12/03 06:54:02;;;;;;;;;;;;;;;6.72;59.42;100047.75;4969753;28;6811;-75
2021/12/03 06:56:44;;;;;;;;;;;;;;;6.69;58.79;100050.13;4972062;28;6819;-75
2021/12/03 06:59:11;;;;;;;;;;;;;;;6.67;58.81;100056.81;4966646;28;7150;-75
2021/12/03 07:01:37;;;;;;;;;;;;;;;6.63;59.12;100059.94;4969427;28;7239;-75
2021/12/03 07:04:03;;;;;;;;;;;;;;;6.60;59.05;100053.00;4970903;28;6911;-75
2021/12/03 07:06:28;;;;;;;;;;;;;;;6.58;59.12;100057.13;4971559;28;7010;-74
2021/12/03 07:08:54;;;;;;;;;;;;;;;6.57;59.20;100059.56;4967645;28;7237;-75
2021/12/03 07:11:20;;;;;;;;;;;;;;;6.56;58.70;100057.81;4970589;28;6875;-75
2021/12/03 07:13:45;;;;;;;;;;;;;;;6.55;58.59;100063.69;4959949;28;7006;-75
2021/12/03 07:16:11;;;;;;;;;;;;;;;6.53;58.59;100054.31;4971988;28;7038;-75
2021/12/03 07:18:38;;;;;;;;;;;;;;;6.53;58.58;100049.22;4975885;28;6804;-75
2021/12/03 07:21:04;;;;;;;;;;;;;;;6.56;58.56;100048.53;4975471;28;7002;-75
2021/12/03 07:23:29;;;;;;;;;;;;;;;6.56;58.35;100048.53;4974501;28;6796;-75
2021/12/03 07:25:56;;;;;;;;;;;;;;;6.60;58.42;100053.00;4956876;28;6950;-75
2021/12/03 07:28:22;;;;;;;;;;;;;;;6.60;58.51;100047.91;4972025;28;6814;-75
2021/12/03 07:30:48;;;;;;;;;;;;;;;6.62;58.09;100050.53;4971313;28;6780;-75
2021/12/03 07:33:16;;;;;;;;;;;;;;;6.64;58.00;100048.97;4971652;28;6799;-75
2021/12/03 07:35:44;;;;;;;;;;;;;;;6.66;58.15;100042.28;4971244;28;6800;-75
2021/12/03 07:38:11;;;;;;;;;;;;;;;6.67;57.90;100046.63;4974908;28;6895;-75
2021/12/03 07:40:37;;;;;;;;;;;;;;;6.69;57.75;100046.69;4971868;28;6830;-75
2021/12/03 07:43:03;;;;;;;;;;;;;;;6.70;57.80;100049.31;4973347;28;6796;-75
2021/12/03 07:45:29;;;;;;;;;;;;;;;6.69;57.42;100044.13;4968911;28;6865;-75
2021/12/03 07:47:55;;;;;;;;;;;;;;;6.70;57.57;100041.69;4975695;28;6981;-75
2021/12/03 07:50:21;;;;;;;;;;;;;;;6.70;57.52;100031.50;4976891;28;7844;-75
2021/12/03 07:52:47;;;;;;;;;;;;;;;6.73;57.69;100033.34;4975422;28;6974;-75
2021/12/03 07:55:13;;;;;;;;;;;;;;;6.74;57.01;100033.41;4975806;28;7167;-75
2021/12/03 07:57:39;;;;;;;;;;;;;;;6.76;57.57;100026.75;4978781;28;6874;-75
2021/12/03 08:00:07;;;;;;;;;;;;;;;6.77;57.34;100023.44;4978867;28;6937;-75
2021/12/03 08:02:33;;;;;;;;;;;;;;;6.79;57.18;100020.94;4979334;28;6899;-75
2021/12/03 08:04:59;;;;;;;;;;;;;;;6.81;57.31;100024.47;4995554;28;7178;-75
2021/12/03 08:07:25;;;;;;;;;;;;;;;6.83;57.38;100035.63;4978742;28;6879;-75
2021/12/03 08:09:51;;;;;;;;;;;;;;;6.86;57.26;100034.94;4977691;28;6878;-75
2021/12/03 08:12:17;;;;;;;;;;;;;;;6.88;57.09;100036.75;4978774;28;6779;-75
2021/12/03 08:14:42;;;;;;;;;;;;;;;6.92;57.52;100042.91;4979394;28;6796;-75
2021/12/03 08:17:09;;;;;;;;;;;;;;;6.94;57.27;100051.50;4979214;28;6784;-75
2021/12/03 08:19:34;;;;;;;;;;;;;;;6.99;56.97;100060.31;4962443;28;7076;-75
2021/12/03 08:22:00;;;;;;;;;;;;;;;7.02;56.89;100057.94;4979401;28;7106;-75
2021/12/03 08:24:26;;;;;;;;;;;;;;;7.06;57.46;100047.13;4979261;28;6795;-75
2021/12/03 08:26:52;;;;;;;;;;;;;;;7.09;57.18;100054.94;4978095;28;6854;-75
2021/12/03 08:29:17;;;;;;;;;;;;;;;7.13;56.78;100057.66;4979897;28;6779;-75
2021/12/03 08:31:43;;;;;;;;;;;;;;;7.15;57.00;100045.91;4979923;28;7117;-75
2021/12/03 08:34:09;;;;;;;;;;;;;;;7.18;56.45;100046.91;4979156;28;7151;-75
2021/12/03 08:36:35;;;;;;;;;;;;;;;7.18;56.37;100026.53;4978900;28;7181;-75
2021/12/03 08:39:02;;;;;;;;;;;;;;;7.20;56.27;100036.81;4978525;28;6815;-75
2021/12/03 08:41:28;;;;;;;;;;;;;;;7.22;56.38;100038.66;4979152;28;6819;-75
2021/12/03 08:43:53;;;;;;;;;;;;;;;7.27;56.78;100032.94;4976041;28;6862;-75
2021/12/03 08:46:27;;;;;;;;;;;;;;;7.30;56.50;100031.44;4978863;28;7092;-75
2021/12/03 08:48:53;;;;;;;;;;;;;;;7.32;56.91;100029.84;4979504;28;7709;-75
2021/12/03 08:56:31;;;;;;;;;;;;;;;7.35;56.21;100014.72;4977648;28;7289;-75
2021/12/03 08:58:57;;;;;;;;;;;;;;;7.34;56.15;100023.19;4976507;28;6968;-75
2021/12/03 09:01:23;;;;;;;;;;;;;;;7.36;55.43;100025.78;4975878;28;7264;-75
2021/12/03 09:03:49;;;;;;;;;;;;;;;7.36;55.67;100015.59;4976996;28;7173;-75
2021/12/03 09:06:14;;;;;;;;;;;;;;;7.38;55.34;100024.19;4976656;28;7294;-75
2021/12/03 09:08:40;;;;;;;;;;;;;;;7.37;55.40;100027.53;4961543;28;6880;-75
2021/12/03 09:11:06;;;;;;;;;;;;;;;7.38;55.39;100029.28;4976879;28;6874;-75
2021/12/03 09:13:31;;;;;;;;;;;;;;;7.38;55.28;100019.09;4979458;28;6998;-75
2021/12/03 09:16:04;;;;;;;;;;;;;;;7.39;55.10;100025.97;4976916;28;6784;-75
2021/12/03 09:18:44;;;;;;;;;;;;;;;7.39;55.17;100002.16;4975115;28;7246;-75
2021/12/03 09:21:23;;;;;;;;;;;;;;;7.41;54.91;100013.28;4961654;28;6884;-75
2021/12/03 09:26:16;;;;;;;;;;;;;;;7.43;54.65;100002.41;4979035;28;6799;-75
2021/12/03 09:28:52;;;;;;;;;;;;;;;7.47;55.72;100011.09;4960102;28;6943;-75
2021/12/03 09:31:18;;;;;;;;;;;;;;;7.50;55.12;100016.34;4957711;28;7326;-75
2021/12/03 09:33:46;;;;;;;;;;;;;;;7.56;54.46;100013.25;4954539;28;7343;-75
2021/12/03 09:36:13;;;;;;;;;;;;;;;7.60;54.51;100010.94;4975056;28;6804;-75
2021/12/03 09:38:39;;;;;;;;;;;;;;;7.67;54.93;100017.25;4973917;28;7014;-75
2021/12/03 09:41:17;;;;;;;;;;;;;;;7.72;54.87;100022.59;4971915;28;7236;-76
2021/12/03 09:43:48;;;;;;;;;;;;;;;7.76;54.71;100027.94;4973846;28;7911;-75
2021/12/03 09:46:18;;;;;;;;;;;;;;;7.79;53.88;100029.78;4970478;28;7029;-75
2021/12/03 09:49:03;;;;;;;;;;;;;;;7.85;54.70;100029.22;4972051;28;7222;-75
2021/12/03 09:54:29;;;;;;;;;;;;;;;7.97;54.04;100026.47;4936700;28;6835;-75
2021/12/03 09:57:21;;;;;;;;;;;;;;;8.00;54.96;100024.94;4972680;28;7081;-75
2021/12/03 10:07:07;;;;;;;;;;;;;;;8.05;53.72;100020.09;4971874;28;6955;-75
2021/12/03 10:16:45;;;;;;;;;;;;;;;8.25;53.69;99995.56;4969931;28;6888;-75
2021/12/03 10:19:29;;;;;;;;;;;;;;;8.29;54.28;99992.38;4973416;28;7996;-75
2021/12/03 10:22:23;;;;;;;;;;;;;;;8.37;53.94;99981.69;4970414;28;6894;-74
2021/12/03 10:33:47;;;;;;;;;;;;;;;8.36;54.25;99962.91;4973598;28;7039;-75
2021/12/03 10:44:07;;;;;;;;;;;;;;;8.47;53.15;99951.56;4971621;28;7047;-75
2021/12/03 10:51:55;;;;;;;;;;;;;;;9.16;52.32;99926.69;4974653;28;6907;-75
2021/12/03 11:06:11;;;;;;;;;;;;;;;9.86;51.02;99892.25;4975037;28;7129;-75
2021/12/03 11:34:01;;;;;;;;;;;;;;;9.37;51.25;99842.38;4976745;28;7137;-75
2021/12/03 11:39:35;;;;;;;;;;;;;;;9.31;51.52;99839.56;4976590;28;7314;-75
2021/12/03 11:57:24;;;;;;;;;;;;;;;9.36;50.95;99798.84;4974443;28;6884;-75
2021/12/03 12:48:19;;;;;;;;;;;;;;;9.41;50.29;99708.69;4973039;28;8149;-76
2021/12/03 13:02:06;;;;;;;;;;;;;;;9.46;49.28;99675.63;4976146;28;7206;-75
2021/12/03 13:56:37;;;;;;;;;;;;;;;9.22;49.78;99603.91;4971864;28;6979;-75
2021/12/03 13:59:39;;;;;;;;;;;;;;;9.16;50.10;99604.53;4969551;28;7069;-75
2021/12/03 14:19:09;;;;;;;;;;;;;;;9.27;49.57;99581.97;4972711;28;7157;-75
2021/12/03 14:45:46;;;;;;;;;;;;;;;9.02;50.14;99579.28;4974305;28;6792;-74
2021/12/03 14:56:20;;;;;;;;;;;;;;;8.87;51.73;99560.75;4970912;28;7257;-74
2021/12/03 14:58:52;;;;;;;;;;;;;;;8.87;50.59;99560.75;4972832;28;6811;-75
2021/12/03 15:01:29;;;;;;;;;;;;;;;8.84;51.73;99550.41;4973817;28;6933;-74
2021/12/03 15:04:29;;;;;;;;;;;;;;;8.83;51.55;99551.22;4975920;28;7063;-75
2021/12/03 15:07:04;;;;;;;;;;;;;;;8.82;50.75;99549.47;4973621;28;6832;-75
2021/12/03 15:09:34;;;;;;;;;;;;;;;8.79;52.44;99550.22;4973119;28;7176;-74
2021/12/03 15:25:18;;;;;;;;;;;;;;;8.55;52.84;99542.41;4974139;28;7189;-75
2021/12/03 15:27:57;;;;;;;;;;;;;;;8.56;52.92;99547.59;4976665;28;7083;-75
2021/12/03 15:40:53;;;;;;;;;;;;;;;8.72;53.19;99515.00;4976414;28;7238;-75
2021/12/03 16:05:02;;;;;;;;;;;;;;;8.79;52.67;99495.69;4978532;28;7417;-75
2021/12/03 16:07:57;;;;;;;;;;;;;;;8.81;51.90;99497.50;4974545;28;6823;-74
2021/12/03 16:10:27;;;;;;;;;;;;;;;8.83;52.51;99488.19;4977645;28;6820;-74
2021/12/03 16:49:27;;;;;;;;;;;;;;;9.00;52.01;99477.78;4958054;28;6892;-75
2021/12/03 16:53:29;;;;;;;;;;;;;;;9.03;51.52;99481.34;4971687;28;6966;-75
2021/12/03 16:56:42;;;;;;;;;;;;;;;9.05;52.14;99471.19;4955949;28;6962;-75
2021/12/03 16:58:44;;;;;;;;;;;;;;;9.06;52.23;99472.03;4965555;28;7045;-75
2021/12/03 17:20:20;;;;;;;;;;;;;;;9.04;53.02;99469.44;4967210;28;7223;-75
2021/12/03 17:28:59;;;;;;;;;;;;;;;8.99;52.73;99469.25;4950534;28;7039;-74
2021/12/03 17:44:30;;;;;;;;;;;;;;;8.85;52.85;99472.94;4975260;28;6896;-74
2021/12/03 17:47:48;;;;;;;;;;;;;;;8.82;54.09;99427.69;4974472;28;6823;-75
2021/12/03 17:58:28;;;;;;;;;;;;;;;8.94;53.46;99404.31;4974912;28;6823;-75
2021/12/03 18:01:01;;;;;;;;;;;;;;;8.96;53.65;99412.91;4954574;28;7305;-75
2021/12/03 18:03:42;;;;;;;;;;;;;;;8.98;53.46;99403.63;4974623;28;7205;-75
2021/12/03 18:11:55;;;;;;;;;;;;;;;9.00;53.53;99373.00;4975931;28;6823;-75
2021/12/03 18:45:23;;;;;;;;;;;;;;;9.12;52.16;99321.47;4976222;28;7470;-75
2021/12/03 18:47:34;;;;;;;;;;;;;;;9.14;52.71;99322.38;4971130;28;7000;-75
2021/12/03 18:50:44;;;;;;;;;;;;;;;9.18;52.55;99329.38;4975503;28;8473;-75
2021/12/03 18:55:44;;;;;;;;;;;;;;;9.20;52.90;99319.19;4975814;28;7429;-76
2021/12/03 18:58:10;;;;;;;;;;;;;;;9.22;53.13;99322.66;4976319;28;7093;-75
2021/12/03 19:00:45;;;;;;;;;;;;;;;9.23;52.32;99315.06;4974962;28;6903;-75
2021/12/03 19:03:23;;;;;;;;;;;;;;;9.23;52.29;99319.31;4973546;28;6882;-75
2021/12/03 19:06:09;;;;;;;;;;;;;;;9.25;52.32;99323.63;4975493;28;6815;-75
2021/12/03 19:08:42;;;;;;;;;;;;;;;9.26;52.46;99319.41;4973248;28;9266;-75
2021/12/03 19:13:43;;;;;;;;;;;;;;;9.26;52.87;99304.06;4974623;28;6891;-75
2021/12/03 19:16:11;;;;;;;;;;;;;;;9.27;52.76;99308.38;4973804;28;6804;-75
2021/12/03 19:18:43;;;;;;;;;;;;;;;9.28;52.31;99317.78;4974333;28;7089;-75
2021/12/03 19:21:16;;;;;;;;;;;;;;;9.27;52.22;99309.25;4956068;28;7034;-75
2021/12/03 19:23:42;;;;;;;;;;;;;;;9.28;52.58;99297.31;4957238;28;6892;-75
2021/12/03 19:26:08;;;;;;;;;;;;;;;9.28;52.39;99297.31;4957321;28;7031;-75
2021/12/03 19:28:34;;;;;;;;;;;;;;;9.27;52.28;99299.03;4974597;28;7833;-75
2021/12/03 19:30:59;;;;;;;;;;;;;;;9.24;51.87;99288.66;4972494;28;6921;-75
2021/12/03 19:33:26;;;;;;;;;;;;;;;9.22;52.67;99286.84;4956463;28;7019;-75
2021/12/03 19:35:52;;;;;;;;;;;;;;;9.20;52.63;99279.16;4972705;28;6958;-75
2021/12/03 19:38:18;;;;;;;;;;;;;;;9.19;53.01;99267.19;4970755;28;7071;-75
2021/12/03 19:40:58;;;;;;;;;;;;;;;9.19;52.21;99282.53;4977552;28;6803;-75
2021/12/03 19:43:34;;;;;;;;;;;;;;;9.15;52.67;99260.22;4960158;28;7199;-75
2021/12/03 19:46:03;;;;;;;;;;;;;;;9.12;52.89;99245.63;4971933;28;6816;-75
2021/12/03 19:48:36;;;;;;;;;;;;;;;9.10;53.15;99264.31;4972179;28;6799;-75
2021/12/03 19:51:10;;;;;;;;;;;;;;;9.08;53.65;99248.03;4972590;28;6803;-75
2021/12/03 19:53:43;;;;;;;;;;;;;;;9.05;53.76;99251.38;4972278;28;7346;-75
2021/12/03 19:56:08;;;;;;;;;;;;;;;9.03;53.46;99258.97;4973176;28;6824;-75
2021/12/03 19:58:34;;;;;;;;;;;;;;;9.01;53.37;99241.84;4973068;28;7318;-75
2021/12/03 20:01:00;;;;;;;;;;;;;;;9.01;54.27;99244.38;4971864;28;6935;-75
2021/12/03 20:03:26;;;;;;;;;;;;;;;9.00;52.78;99240.97;4957006;28;7004;-75
2021/12/03 20:05:51;;;;;;;;;;;;;;;8.97;53.74;99242.56;4984088;28;7209;-75
2021/12/03 20:08:19;;;;;;;;;;;;;;;8.97;53.79;99245.97;4976315;28;6977;-75
2021/12/03 20:10:47;;;;;;;;;;;;;;;8.97;54.49;99243.41;4971701;28;7023;-75
2021/12/03 20:13:13;;;;;;;;;;;;;;;8.95;54.49;99239.94;4974014;28;6815;-75
2021/12/03 20:15:59;;;;;;;;;;;;;;;8.97;54.27;99240.00;4975050;28;6796;-75
2021/12/03 20:18:39;;;;;;;;;;;;;;;8.95;53.42;99237.38;4988431;28;6796;-75
2021/12/03 20:21:06;;;;;;;;;;;;;;;8.98;53.46;99244.28;4975497;28;7045;-74
2021/12/03 20:26:52;;;;;;;;;;;;;;;9.00;54.26;99246.09;4955432;28;7222;-75